createdAt,value
2023-03-24T00:00:20.248Z,20.90
2023-03-24T00:02:48.584Z,21.70
2023-03-24T00:05:17.147Z,20.55
2023-03-24T00:07:46.652Z,21.33
2023-03-24T00:10:18.840Z,21.55
2023-03-24T00:12:46.764Z,20.15
2023-03-24T00:15:16.510Z,19.38
2023-03-24T00:17:43.129Z,20.30
2023-03-24T00:20:16.934Z,20.88
2023-03-24T00:22:49.556Z,21.77
2023-03-24T00:25:23.831Z,21.05
2023-03-24T00:27:51.342Z,22.92
2023-03-24T00:30:19.141Z,20.55
2023-03-24T00:32:48.972Z,20.10
2023-03-24T00:35:17.713Z,20.00
2023-03-24T00:37:45.312Z,21.02
2023-03-24T00:40:17.495Z,21.05
2023-03-24T00:42:46.073Z,22.10
2023-03-24T00:45:18.071Z,21.50
2023-03-24T00:47:44.889Z,22.25
2023-03-24T00:50:17.859Z,22.20
2023-03-24T00:52:47.784Z,23.40
2023-03-24T00:55:16.315Z,24.70
2023-03-24T00:57:51.281Z,26.10
2023-03-24T01:00:24.857Z,27.25
2023-03-24T01:02:54.588Z,28.63
2023-03-24T01:05:23.477Z,28.88
2023-03-24T01:07:53.485Z,29.52
2023-03-24T01:10:26.941Z,29.33
2023-03-24T01:12:56.505Z,30.02
2023-03-24T01:15:26.377Z,29.98
2023-03-24T01:17:53.394Z,30.20
2023-03-24T01:20:20.716Z,31.27
2023-03-24T01:22:47.342Z,30.05
2023-03-24T01:25:16.797Z,30.45
2023-03-24T01:27:44.655Z,29.58
2023-03-24T01:30:19.240Z,29.67
2023-03-24T01:32:45.888Z,33.65
2023-03-24T01:35:12.751Z,30.65
2023-03-24T01:37:41.291Z,30.73
2023-03-24T01:40:12.677Z,29.63
2023-03-24T01:42:40.342Z,30.38
2023-03-24T01:45:43.990Z,30.52
2023-03-24T01:48:22.481Z,29.65
2023-03-24T01:51:09.337Z,30.83
2023-03-24T01:53:38.806Z,30.25
2023-03-24T01:56:07.534Z,30.63
2023-03-24T01:58:36.788Z,30.67
2023-03-24T02:01:04.913Z,30.80
2023-03-24T02:03:40.269Z,29.55
2023-03-24T02:06:08.517Z,30.67
2023-03-24T02:08:55.377Z,31.80
2023-03-24T02:11:24.324Z,32.10
2023-03-24T02:13:51.206Z,32.05
2023-03-24T02:16:43.155Z,32.40
2023-03-24T02:19:44.810Z,33.83
2023-03-24T02:22:45.457Z,32.05
2023-03-24T02:25:15.459Z,34.30
2023-03-24T02:28:21.116Z,32.55
2023-03-24T02:31:16.311Z,32.95
2023-03-24T02:34:14.338Z,32.42
2023-03-24T02:37:05.608Z,32.58
2023-03-24T02:39:38.310Z,32.25
2023-03-24T02:42:29.754Z,32.10
2023-03-24T02:45:13.406Z,32.60
2023-03-24T02:48:01.760Z,31.77
2023-03-24T02:50:37.062Z,32.22
2023-03-24T02:53:32.100Z,32.13
2023-03-24T02:56:16.674Z,33.35
2023-03-24T02:58:54.180Z,32.65
2023-03-24T03:01:32.178Z,32.10
2023-03-24T03:04:18.097Z,32.33
2023-03-24T03:06:52.487Z,34.25
2023-03-24T03:09:21.407Z,31.95
2023-03-24T03:11:53.076Z,31.45
2023-03-24T03:14:30.692Z,32.67
2023-03-24T03:17:09.401Z,34.05
2023-03-24T03:19:43.852Z,34.25
2023-03-24T03:22:19.153Z,34.95
2023-03-24T03:24:50.504Z,34.38
2023-03-24T03:27:27.278Z,35.28
2023-03-24T03:30:00.430Z,34.30
2023-03-24T03:32:32.032Z,37.30
2023-03-24T03:35:40.153Z,34.83
2023-03-24T03:38:37.434Z,35.25
2023-03-24T03:41:05.559Z,35.10
2023-03-24T03:43:34.038Z,34.72
2023-03-24T03:46:01.772Z,35.35
2023-03-24T03:48:29.224Z,34.22
2023-03-24T03:51:10.181Z,35.53
2023-03-24T03:53:52.568Z,34.33
2023-03-24T03:56:22.680Z,35.42
2023-03-24T03:58:50.112Z,35.28
2023-03-24T04:01:23.214Z,34.63
2023-03-24T04:04:11.430Z,33.50
2023-03-24T04:06:50.387Z,33.65
2023-03-24T04:09:54.111Z,32.90
2023-03-24T04:12:39.761Z,33.17
2023-03-24T04:15:25.451Z,33.33
2023-03-24T04:18:10.279Z,33.75
2023-03-24T04:20:46.559Z,33.67
2023-03-24T04:23:28.012Z,33.22
2023-03-24T04:26:45.703Z,33.38
2023-03-24T04:29:17.873Z,32.33
2023-03-24T04:31:44.487Z,32.35
2023-03-24T04:34:25.996Z,32.00
2023-03-24T04:37:04.055Z,32.88
2023-03-24T04:39:35.572Z,32.15
2023-03-24T04:42:06.108Z,33.20
2023-03-24T04:44:33.284Z,33.83
2023-03-24T04:47:03.087Z,34.15
2023-03-24T04:49:29.609Z,33.97
2023-03-24T04:51:56.218Z,32.85
2023-03-24T04:54:23.389Z,34.10
2023-03-24T04:56:54.949Z,33.65
2023-03-24T04:59:21.424Z,33.03
2023-03-24T05:01:53.865Z,32.95
2023-03-24T05:04:23.313Z,34.65
2023-03-24T05:06:49.876Z,34.00
2023-03-24T05:09:24.045Z,33.90
2023-03-24T05:11:51.765Z,34.20
2023-03-24T05:14:18.643Z,33.38
2023-03-24T05:16:47.592Z,31.95
2023-03-24T05:19:14.182Z,33.45
2023-03-24T05:21:41.015Z,34.70
2023-03-24T05:24:07.601Z,33.63
2023-03-24T05:26:34.562Z,32.90
2023-03-24T05:29:01.986Z,33.47
2023-03-24T05:31:28.692Z,32.72
2023-03-24T05:33:55.611Z,34.47
2023-03-24T05:36:22.127Z,32.58
2023-03-24T05:38:48.556Z,32.30
2023-03-24T05:41:15.000Z,33.10
2023-03-24T05:43:41.511Z,32.83
2023-03-24T05:46:08.116Z,31.80
2023-03-24T05:48:34.763Z,32.88
2023-03-24T05:51:01.709Z,32.95
2023-03-24T05:53:28.196Z,33.55
2023-03-24T05:55:54.823Z,33.45
2023-03-24T05:58:21.470Z,33.03
2023-03-24T06:00:48.394Z,32.58
2023-03-24T06:03:17.277Z,32.33
2023-03-24T06:05:46.039Z,32.40
2023-03-24T06:08:12.996Z,32.75
2023-03-24T06:10:40.632Z,31.77
2023-03-24T06:13:09.103Z,33.08
2023-03-24T06:15:36.762Z,33.08
2023-03-24T06:18:05.300Z,32.97
2023-03-24T06:20:32.102Z,33.30
2023-03-24T06:23:00.223Z,33.78
2023-03-24T06:25:28.681Z,32.60
2023-03-24T06:27:55.366Z,32.22
2023-03-24T06:30:22.046Z,32.08
2023-03-24T06:32:48.734Z,32.10
2023-03-24T06:35:16.924Z,32.80
2023-03-24T06:37:43.773Z,32.05
2023-03-24T06:40:13.925Z,31.75
2023-03-24T06:45:08.077Z,31.05
2023-03-24T06:47:34.694Z,32.65
2023-03-24T06:50:01.438Z,32.45
2023-03-24T06:52:28.417Z,32.47
2023-03-24T06:54:54.963Z,32.38
2023-03-24T06:57:21.759Z,32.75
2023-03-24T06:59:49.109Z,30.48
2023-03-24T07:02:15.983Z,29.45
2023-03-24T07:04:42.729Z,30.63
2023-03-24T07:07:30.985Z,29.83
2023-03-24T07:09:56.572Z,29.17
2023-03-24T07:12:23.109Z,29.02
2023-03-24T07:14:49.573Z,27.50
2023-03-24T07:17:16.435Z,27.33
2023-03-24T07:19:44.822Z,27.83
2023-03-24T07:22:12.268Z,27.58
2023-03-24T07:24:38.787Z,26.92
2023-03-24T07:27:05.316Z,26.25
2023-03-24T07:29:31.741Z,26.88
2023-03-24T07:32:01.595Z,26.70
2023-03-24T07:34:28.885Z,25.70
2023-03-24T07:36:55.571Z,23.33
2023-03-24T07:39:22.189Z,22.60
2023-03-24T07:41:48.620Z,22.60
2023-03-24T07:44:15.132Z,23.10
2023-03-24T07:46:41.619Z,21.92
2023-03-24T07:49:18.057Z,21.75
2023-03-24T07:51:45.645Z,20.20
2023-03-24T07:54:12.169Z,20.75
2023-03-24T07:56:38.705Z,21.70
2023-03-24T07:59:05.340Z,20.80
2023-03-24T08:01:32.807Z,19.38
2023-03-24T08:03:59.861Z,18.35
2023-03-24T08:06:26.423Z,17.88
2023-03-24T08:08:53.308Z,19.70
2023-03-24T08:11:19.724Z,19.40
2023-03-24T08:13:46.398Z,18.35
2023-03-24T08:16:12.966Z,19.13
2023-03-24T08:18:39.437Z,25.00
2023-03-24T08:21:06.533Z,17.83
2023-03-24T08:23:33.283Z,21.85
2023-03-24T08:25:59.810Z,18.63
2023-03-24T08:28:26.302Z,18.30
2023-03-24T08:30:52.775Z,15.60
2023-03-24T08:33:19.252Z,20.55
2023-03-24T08:35:46.861Z,17.63
2023-03-24T08:38:18.777Z,24.45
2023-03-24T08:40:45.713Z,16.30
2023-03-24T08:43:16.076Z,16.75
2023-03-24T08:45:42.986Z,17.38
2023-03-24T08:48:10.334Z,17.13
2023-03-24T08:50:41.886Z,14.30
2023-03-24T08:53:09.138Z,17.10
2023-03-24T08:55:37.726Z,15.65
2023-03-24T08:58:04.283Z,21.10
2023-03-24T09:00:31.538Z,19.67
2023-03-24T09:02:58.527Z,13.98
2023-03-24T09:05:40.963Z,16.20
2023-03-24T09:08:10.756Z,22.60
2023-03-24T09:10:37.398Z,15.93
2023-03-24T09:13:04.525Z,21.27
2023-03-24T09:15:31.602Z,20.15
2023-03-24T09:17:58.082Z,17.92
2023-03-24T09:20:25.667Z,18.75
2023-03-24T09:22:52.382Z,18.88
2023-03-24T09:25:20.705Z,22.55
2023-03-24T09:27:47.173Z,16.58
2023-03-24T09:30:16.001Z,16.85
2023-03-24T09:32:42.556Z,20.88
2023-03-24T09:35:09.445Z,17.58
2023-03-24T09:37:37.233Z,16.35
2023-03-24T09:40:04.987Z,20.70
2023-03-24T09:42:38.524Z,22.27
2023-03-24T09:45:13.500Z,16.40
2023-03-24T09:47:49.184Z,21.30
2023-03-24T09:50:27.057Z,18.77
2023-03-24T09:52:57.221Z,16.75
2023-03-24T09:58:01.627Z,19.50
2023-03-24T10:00:31.643Z,16.90
2023-03-24T10:03:01.928Z,18.70
2023-03-24T10:05:40.693Z,15.70
2023-03-24T10:08:13.127Z,18.20
2023-03-24T10:11:21.455Z,20.02
2023-03-24T10:14:04.338Z,18.70
2023-03-24T10:16:49.497Z,16.40
2023-03-24T10:19:36.872Z,22.33
2023-03-24T10:22:19.189Z,17.20
2023-03-24T10:24:51.288Z,16.30
2023-03-24T10:27:30.485Z,19.65
2023-03-24T10:30:07.124Z,19.83
2023-03-24T10:32:35.630Z,18.08
2023-03-24T10:35:09.008Z,21.90
2023-03-24T10:37:37.004Z,18.45
2023-03-24T10:40:12.192Z,19.48
2023-03-24T10:42:38.672Z,18.92
2023-03-24T10:45:06.097Z,16.58
2023-03-24T10:47:33.961Z,17.25
2023-03-24T10:50:11.961Z,15.43
2023-03-24T10:52:41.752Z,18.80
2023-03-24T10:55:16.586Z,19.45
2023-03-24T10:57:48.877Z,17.10
2023-03-24T11:00:29.790Z,17.17
2023-03-24T11:02:59.254Z,17.75
2023-03-24T11:05:30.650Z,17.40
2023-03-24T11:08:12.859Z,17.98
2023-03-24T11:10:39.785Z,19.65
2023-03-24T11:13:19.005Z,17.20
2023-03-24T11:16:14.182Z,20.10
2023-03-24T11:19:01.855Z,17.55
2023-03-24T11:21:30.506Z,17.58
2023-03-24T11:24:03.765Z,18.48
2023-03-24T11:26:32.213Z,17.17
2023-03-24T11:29:01.983Z,13.38
2023-03-24T11:31:38.244Z,22.60
2023-03-24T11:34:20.242Z,18.08
2023-03-24T11:36:50.828Z,16.90
2023-03-24T11:39:23.354Z,17.80
2023-03-24T11:42:27.190Z,17.02
2023-03-24T11:44:55.346Z,19.08
2023-03-24T11:47:31.868Z,21.02
2023-03-24T11:50:14.883Z,17.52
2023-03-24T11:52:54.905Z,21.52
2023-03-24T11:55:32.604Z,19.38
2023-03-24T11:58:04.292Z,19.38
2023-03-24T12:00:41.172Z,20.10
2023-03-24T12:03:38.088Z,19.70
2023-03-24T12:06:23.392Z,20.90
2023-03-24T12:09:22.490Z,19.83
2023-03-24T12:12:18.500Z,22.15
2023-03-24T12:15:03.010Z,20.35
2023-03-24T12:17:41.971Z,19.23
2023-03-24T12:20:18.174Z,22.92
2023-03-24T12:22:58.104Z,18.17
2023-03-24T12:25:43.176Z,22.88
2023-03-24T12:28:09.666Z,21.10
2023-03-24T12:31:05.508Z,19.85
2023-03-24T12:33:41.044Z,23.67
2023-03-24T12:36:10.652Z,16.38
2023-03-24T12:38:54.432Z,15.23
2023-03-24T12:42:06.128Z,21.30
2023-03-24T12:44:49.647Z,19.58
2023-03-24T12:47:34.608Z,18.55
2023-03-24T12:50:23.449Z,16.92
2023-03-24T12:55:48.402Z,15.95
2023-03-24T12:58:28.814Z,19.35
2023-03-24T13:01:04.505Z,19.63
2023-03-24T13:03:41.326Z,19.98
2023-03-24T13:06:33.401Z,17.95
2023-03-24T13:09:13.861Z,22.48
2023-03-24T13:11:53.434Z,19.63
2023-03-24T13:14:27.375Z,16.55
2023-03-24T13:17:00.560Z,16.67
2023-03-24T13:19:27.348Z,19.20
2023-03-24T13:21:55.853Z,19.05
2023-03-24T13:24:22.684Z,17.33
2023-03-24T13:27:08.251Z,19.10
2023-03-24T13:30:00.055Z,16.73
2023-03-24T13:32:34.656Z,15.60
2023-03-24T13:35:12.500Z,20.25
2023-03-24T13:37:43.314Z,19.10
2023-03-24T13:40:19.866Z,18.60
2023-03-24T13:42:52.622Z,18.25
2023-03-24T13:45:27.272Z,22.13
2023-03-24T13:48:10.410Z,15.98
2023-03-24T13:50:51.865Z,18.88
2023-03-24T13:53:19.407Z,18.35
2023-03-24T13:55:50.528Z,16.00
2023-03-24T13:58:26.181Z,21.70
2023-03-24T14:01:31.626Z,19.08
2023-03-24T14:04:19.863Z,12.65
2023-03-24T14:06:55.207Z,21.33
2023-03-24T14:09:30.645Z,13.15
2023-03-24T14:11:57.078Z,15.77
2023-03-24T14:14:26.264Z,14.95
2023-03-24T14:17:08.009Z,14.30
2023-03-24T14:20:02.005Z,16.58
2023-03-24T14:22:32.970Z,17.02
2023-03-24T14:25:02.079Z,14.88
2023-03-24T14:27:36.496Z,16.90
2023-03-24T14:30:26.129Z,14.90
2023-03-24T14:32:58.317Z,15.70
2023-03-24T14:35:34.442Z,18.10
2023-03-24T14:38:19.384Z,12.95
2023-03-24T14:40:52.751Z,17.10
2023-03-24T14:43:30.518Z,15.15
2023-03-24T14:46:00.250Z,16.48
2023-03-24T14:48:34.643Z,13.88
2023-03-24T14:51:07.062Z,18.15
2023-03-24T14:53:36.563Z,18.13
2023-03-24T14:56:04.343Z,14.23
2023-03-24T14:58:36.509Z,19.95
2023-03-24T15:01:07.642Z,16.33
2023-03-24T15:03:45.923Z,13.60
2023-03-24T15:06:16.507Z,20.88
2023-03-24T15:08:51.392Z,17.60
2023-03-24T15:11:24.317Z,17.58
2023-03-24T15:13:53.360Z,15.38
2023-03-24T15:16:31.659Z,12.18
2023-03-24T15:19:02.469Z,15.70
2023-03-24T15:21:29.288Z,15.35
2023-03-24T15:23:57.721Z,13.48
2023-03-24T15:26:25.540Z,16.10
2023-03-24T15:29:01.090Z,18.17
2023-03-24T15:31:30.580Z,14.80
2023-03-24T15:34:04.609Z,15.93
2023-03-24T15:36:40.645Z,14.93
2023-03-24T15:39:18.910Z,14.85
2023-03-24T15:41:49.561Z,19.10
2023-03-24T15:44:20.795Z,12.63
2023-03-24T15:46:49.069Z,12.98
2023-03-24T15:49:33.397Z,16.30
2023-03-24T15:52:03.210Z,18.67
2023-03-24T15:54:44.572Z,16.70
2023-03-24T15:57:18.561Z,15.27
2023-03-24T15:59:49.828Z,16.88
2023-03-24T16:02:43.287Z,18.80
2023-03-24T16:05:29.338Z,12.30
2023-03-24T16:08:05.839Z,18.02
2023-03-24T16:10:45.096Z,16.48
2023-03-24T16:13:17.528Z,18.40
2023-03-24T16:15:52.997Z,19.27
2023-03-24T16:18:25.319Z,15.27
2023-03-24T16:20:52.418Z,15.95
2023-03-24T16:23:18.932Z,19.85
2023-03-24T16:25:45.758Z,15.57
2023-03-24T16:28:13.937Z,18.70
2023-03-24T16:30:42.686Z,17.10
2023-03-24T16:33:09.628Z,17.63
2023-03-24T16:35:36.615Z,15.27
2023-03-24T16:38:03.374Z,19.27
2023-03-24T16:40:37.028Z,20.92
2023-03-24T16:43:03.942Z,22.02
2023-03-24T16:45:31.412Z,18.10
2023-03-24T16:47:59.388Z,16.90
2023-03-24T16:50:37.683Z,14.52
2023-03-24T16:53:04.758Z,20.25
2023-03-24T16:55:32.277Z,24.35
2023-03-24T16:57:58.792Z,17.20
2023-03-24T17:00:25.537Z,19.55
2023-03-24T17:02:53.799Z,21.95
2023-03-24T17:05:28.329Z,14.95
2023-03-24T17:07:56.476Z,16.30
2023-03-24T17:10:27.417Z,17.00
2023-03-24T17:12:57.611Z,16.42
2023-03-24T17:17:52.865Z,17.50
2023-03-24T17:20:20.816Z,21.85
2023-03-24T17:22:49.420Z,14.60
2023-03-24T17:25:19.165Z,18.55
2023-03-24T17:27:45.775Z,19.17
2023-03-24T17:30:20.286Z,19.42
2023-03-24T17:32:47.561Z,19.25
2023-03-24T17:35:19.677Z,19.20
2023-03-24T17:37:46.498Z,14.30
2023-03-24T17:40:15.466Z,16.23
2023-03-24T17:42:46.222Z,13.13
2023-03-24T17:45:16.322Z,15.30
2023-03-24T17:47:43.003Z,21.42
2023-03-24T17:50:09.993Z,14.07
2023-03-24T17:52:37.724Z,18.60
2023-03-24T17:55:05.544Z,18.50
2023-03-24T17:57:32.761Z,15.18
2023-03-24T17:59:59.361Z,17.40
2023-03-24T18:02:26.525Z,14.85
2023-03-24T18:04:54.345Z,16.88
2023-03-24T18:07:20.858Z,12.50
2023-03-24T18:09:47.287Z,35.05
2023-03-24T18:12:13.789Z,28.52
2023-03-24T18:14:40.916Z,23.05
2023-03-24T18:17:07.442Z,19.00
2023-03-24T18:19:34.014Z,19.92
2023-03-24T18:22:00.536Z,15.23
2023-03-24T18:24:27.133Z,14.63
2023-03-24T18:26:53.550Z,18.98
2023-03-24T18:29:23.737Z,18.13
2023-03-24T18:34:17.976Z,22.75
2023-03-24T18:36:46.572Z,19.35
2023-03-24T18:39:13.171Z,17.33
2023-03-24T18:41:39.895Z,22.42
2023-03-24T18:44:09.268Z,19.92
2023-03-24T18:46:36.857Z,16.03
2023-03-24T18:49:03.994Z,19.63
2023-03-24T18:51:32.953Z,19.95
2023-03-24T18:53:59.410Z,27.27
2023-03-24T18:56:28.852Z,31.98
2023-03-24T18:58:55.697Z,21.90
2023-03-24T19:01:23.018Z,25.85
2023-03-24T19:03:51.237Z,17.70
2023-03-24T19:06:18.528Z,32.10
2023-03-24T19:08:50.361Z,29.52
2023-03-24T19:11:17.113Z,28.38
2023-03-24T19:13:46.150Z,26.35
2023-03-24T19:16:12.813Z,25.05
2023-03-24T19:18:39.327Z,29.33
2023-03-24T19:21:06.870Z,17.42
2023-03-24T19:23:34.404Z,17.75
2023-03-24T19:26:01.569Z,20.77
2023-03-24T19:28:30.541Z,15.88
2023-03-24T19:30:59.163Z,28.00
2023-03-24T19:33:26.805Z,42.40
2023-03-24T19:35:53.830Z,20.48
2023-03-24T19:38:24.547Z,16.73
2023-03-24T19:43:22.468Z,14.38
2023-03-24T19:45:53.832Z,15.70
2023-03-24T19:48:20.982Z,14.30
2023-03-24T19:50:51.021Z,15.38
2023-03-24T19:53:17.901Z,12.93
2023-03-24T19:55:44.377Z,16.42
2023-03-24T19:58:11.260Z,16.45
2023-03-24T20:00:37.774Z,16.15
2023-03-24T20:03:04.500Z,14.90
2023-03-24T20:05:31.169Z,14.73
2023-03-24T20:08:00.069Z,15.50
2023-03-24T20:10:27.401Z,14.25
2023-03-24T20:12:54.774Z,13.48
2023-03-24T20:15:21.784Z,12.95
2023-03-24T20:17:48.886Z,13.35
2023-03-24T20:20:17.731Z,13.23
2023-03-24T20:22:48.660Z,13.35
2023-03-24T20:25:17.492Z,13.80
2023-03-24T20:27:47.809Z,14.68
2023-03-24T20:30:17.666Z,13.55
2023-03-24T20:32:44.360Z,13.25
2023-03-24T20:35:11.753Z,15.98
2023-03-24T20:37:38.232Z,14.07
2023-03-24T20:40:06.676Z,14.60
2023-03-24T20:42:33.625Z,12.75
2023-03-24T20:45:01.506Z,17.17
2023-03-24T20:47:28.066Z,13.85
2023-03-24T20:49:54.604Z,13.50
2023-03-24T20:52:22.884Z,13.77
2023-03-24T20:54:50.505Z,13.38
2023-03-24T20:57:18.025Z,12.77
2023-03-24T20:59:46.754Z,14.25
2023-03-24T21:02:13.738Z,13.60
2023-03-24T21:04:40.322Z,12.07
2023-03-24T21:07:06.778Z,11.88
2023-03-24T21:09:33.286Z,11.95
2023-03-24T21:12:01.071Z,12.40
2023-03-24T21:14:27.762Z,14.55
2023-03-24T21:16:54.244Z,12.18
2023-03-24T21:19:22.756Z,18.42
2023-03-24T21:21:49.662Z,15.15
2023-03-24T21:24:17.453Z,22.50
2023-03-24T21:26:46.159Z,13.80
2023-03-24T21:29:13.074Z,20.48
2023-03-24T21:31:41.597Z,14.00
2023-03-24T21:34:08.404Z,14.93
2023-03-24T21:36:38.212Z,12.57
2023-03-24T21:39:06.833Z,17.42
2023-03-24T21:41:33.258Z,15.00
2023-03-24T21:44:00.848Z,20.00
2023-03-24T21:46:27.980Z,16.25
2023-03-24T21:48:55.947Z,12.18
2023-03-24T21:51:25.278Z,11.50
2023-03-24T21:53:56.641Z,16.55
2023-03-24T21:56:23.447Z,15.15
2023-03-24T21:58:52.133Z,15.00
2023-03-24T22:01:18.688Z,17.80
2023-03-24T22:03:46.628Z,13.15
2023-03-24T22:06:13.594Z,12.07
2023-03-24T22:08:43.563Z,14.00
2023-03-24T22:13:39.006Z,11.98
2023-03-24T22:16:06.618Z,13.55
2023-03-24T22:18:34.510Z,11.38
2023-03-24T22:21:06.975Z,15.10
2023-03-24T22:23:37.715Z,14.07
2023-03-24T22:26:07.749Z,10.57
2023-03-24T22:28:35.801Z,11.27
2023-03-24T22:31:05.038Z,11.18
2023-03-24T22:33:31.977Z,11.70
2023-03-24T22:35:59.526Z,11.35
2023-03-24T22:38:26.691Z,11.00
2023-03-24T22:41:02.129Z,13.57
2023-03-24T22:43:29.521Z,11.40
2023-03-24T22:45:56.469Z,12.95
2023-03-24T22:48:23.509Z,10.80
2023-03-24T22:50:50.202Z,15.05
2023-03-24T22:53:17.135Z,17.27
2023-03-24T22:55:44.864Z,18.67
2023-03-24T22:58:13.304Z,20.27
2023-03-24T23:00:44.390Z,20.67
2023-03-24T23:03:11.281Z,20.85
2023-03-24T23:05:47.812Z,22.25
2023-03-24T23:08:17.648Z,21.45
2023-03-24T23:10:45.529Z,21.98
2023-03-24T23:13:12.209Z,21.40
2023-03-24T23:15:40.078Z,21.40
2023-03-24T23:18:06.794Z,21.17
2023-03-24T23:20:33.397Z,25.00
2023-03-24T23:23:01.217Z,26.38
2023-03-24T23:25:30.794Z,28.00
2023-03-24T23:27:57.799Z,29.73
2023-03-24T23:30:24.525Z,28.52
2023-03-24T23:32:51.041Z,30.65
2023-03-24T23:35:17.699Z,29.38
2023-03-24T23:37:44.251Z,31.75
2023-03-24T23:40:14.598Z,30.65
2023-03-24T23:42:46.811Z,31.25
2023-03-24T23:45:18.090Z,30.42
2023-03-24T23:47:47.430Z,30.10
2023-03-24T23:50:17.282Z,30.27
2023-03-24T23:52:46.873Z,29.23
2023-03-24T23:55:14.949Z,29.95
2023-03-24T23:57:42.492Z,30.23
